createdAt,value
2018-06-07T00:00:54.577Z,14.01
2018-06-07T00:02:04.321Z,13.93
2018-06-07T00:03:14.066Z,13.83
2018-06-07T00:04:23.810Z,13.82
2018-06-07T00:05:33.564Z,13.8
2018-06-07T00:06:43.048Z,13.79
2018-06-07T00:07:52.524Z,13.75
2018-06-07T00:09:02.269Z,13.71
2018-06-07T00:10:11.741Z,13.64
2018-06-07T00:11:21.483Z,13.58
2018-06-07T00:12:31.225Z,13.58
2018-06-07T00:13:40.964Z,13.6
2018-06-07T00:14:50.971Z,13.54
2018-06-07T00:16:00.976Z,13.52
2018-06-07T00:17:12.992Z,13.57
2018-06-07T00:18:22.732Z,13.55
2018-06-07T00:19:32.215Z,13.4
2018-06-07T00:20:41.686Z,13.49
2018-06-07T00:21:51.695Z,13.36
2018-06-07T00:23:01.440Z,13.3
2018-06-07T00:24:11.183Z,13.37
2018-06-07T00:25:21.186Z,13.31
2018-06-07T00:26:30.930Z,13.4
2018-06-07T00:27:40.938Z,13.37
2018-06-07T00:28:50.674Z,13.26
2018-06-07T00:30:00.414Z,13.24
2018-06-07T00:31:10.164Z,13.27
2018-06-07T00:32:19.905Z,13.28
2018-06-07T00:33:29.414Z,13.27
2018-06-07T00:34:41.420Z,13.28
2018-06-07T00:35:50.637Z,13.28
2018-06-07T00:37:00.645Z,13.24
2018-06-07T00:38:10.384Z,13.27
2018-06-07T00:39:19.596Z,13.2
2018-06-07T00:40:29.767Z,13.24
2018-06-07T00:41:39.243Z,13.19
2018-06-07T00:42:49.253Z,13.12
2018-06-07T00:43:58.997Z,13.12
2018-06-07T00:45:09.071Z,13.13
2018-06-07T00:46:18.833Z,13.11
2018-06-07T00:47:28.972Z,13.12
2018-06-07T00:48:38.995Z,13.17
2018-06-07T00:49:49.023Z,13.16
2018-06-07T00:50:59.030Z,13.16
2018-06-07T00:52:08.513Z,13.13
2018-06-07T00:53:18.254Z,13.13
2018-06-07T00:54:27.737Z,13.13
2018-06-07T00:55:37.744Z,13.05
2018-06-07T00:56:47.752Z,13.12
2018-06-07T00:57:57.491Z,13.16
2018-06-07T00:59:07.500Z,13.2
2018-06-07T01:00:17.509Z,13.11
2018-06-07T01:01:27.254Z,13.12
2018-06-07T01:02:37.270Z,13.09
2018-06-07T01:03:47.015Z,13.13
2018-06-07T01:04:56.754Z,13.06
2018-06-07T01:06:06.492Z,13.11
2018-06-07T01:07:16.505Z,13.06
2018-06-07T01:08:26.513Z,13.06
2018-06-07T01:09:36.517Z,13.08
2018-06-07T01:10:46.292Z,13.13
2018-06-07T01:11:56.030Z,13.09
2018-06-07T01:13:06.116Z,13.08
2018-06-07T01:14:16.128Z,13.11
2018-06-07T01:15:25.863Z,13.08
2018-06-07T01:16:35.336Z,13.05
2018-06-07T01:17:45.346Z,13.06
2018-06-07T01:18:55.351Z,13.11
2018-06-07T01:20:04.580Z,13.08
2018-06-07T01:21:14.402Z,13.09
2018-06-07T01:22:24.146Z,13.01
2018-06-07T01:23:34.152Z,12.94
2018-06-07T01:24:43.634Z,12.93
2018-06-07T01:25:53.640Z,13.02
2018-06-07T01:27:03.644Z,12.88
2018-06-07T01:28:13.117Z,12.88
2018-06-07T01:29:22.856Z,12.9
2018-06-07T01:30:32.863Z,12.78
2018-06-07T01:31:42.862Z,12.83
2018-06-07T01:32:52.876Z,12.8
2018-06-07T01:34:02.082Z,12.8
2018-06-07T01:35:11.554Z,12.68
2018-06-07T01:36:21.303Z,12.73
2018-06-07T01:37:31.382Z,12.68
2018-06-07T01:38:43.397Z,12.68
2018-06-07T01:39:53.404Z,12.69
2018-06-07T01:41:03.149Z,12.69
2018-06-07T01:42:13.157Z,12.65
2018-06-07T01:43:23.177Z,12.7
2018-06-07T01:44:32.674Z,12.68
2018-06-07T01:45:42.679Z,12.66
2018-06-07T01:46:51.620Z,12.69
2018-06-07T01:48:01.364Z,12.68
2018-06-07T01:49:11.105Z,12.69
2018-06-07T01:50:20.849Z,12.61
2018-06-07T01:51:30.600Z,12.65
2018-06-07T01:52:39.801Z,12.66
2018-06-07T01:53:49.805Z,12.66
2018-06-07T01:54:59.817Z,12.66
2018-06-07T01:56:11.586Z,12.61
2018-06-07T01:57:21.602Z,12.65
2018-06-07T01:58:31.609Z,12.7
2018-06-07T01:59:41.616Z,12.66
2018-06-07T02:00:51.358Z,12.65
2018-06-07T02:02:00.830Z,12.69
2018-06-07T02:03:10.304Z,12.63
2018-06-07T02:04:20.046Z,12.61
2018-06-07T02:05:30.056Z,12.53
2018-06-07T02:06:40.060Z,12.51
2018-06-07T02:07:49.804Z,12.51
2018-06-07T02:08:59.541Z,12.51
2018-06-07T02:10:09.594Z,12.47
2018-06-07T02:11:19.339Z,12.39
2018-06-07T02:12:29.353Z,12.45
2018-06-07T02:13:39.369Z,12.45
2018-06-07T02:14:49.099Z,12.45
2018-06-07T02:15:58.833Z,12.43
2018-06-07T02:17:08.842Z,12.35
2018-06-07T02:18:18.590Z,12.33
2018-06-07T02:19:28.068Z,12.43
2018-06-07T02:20:37.814Z,12.33
2018-06-07T02:21:47.287Z,12.35
2018-06-07T02:22:57.296Z,12.4
2018-06-07T02:24:07.037Z,12.36
2018-06-07T02:25:16.780Z,12.39
2018-06-07T02:26:26.523Z,12.37
2018-06-07T02:27:36.262Z,12.35
2018-06-07T02:28:46.000Z,12.44
2018-06-07T02:29:55.739Z,12.26
2018-06-07T02:31:05.743Z,12.28
2018-06-07T02:32:15.235Z,12.21
2018-06-07T02:33:24.986Z,12.26
2018-06-07T02:34:33.931Z,12.28
2018-06-07T02:35:43.946Z,12.28
2018-06-07T02:36:53.963Z,12.2
2018-06-07T02:38:04.200Z,12.15
2018-06-07T02:39:14.425Z,12.14
2018-06-07T02:40:24.437Z,12.23
2018-06-07T02:41:33.909Z,12.17
2018-06-07T02:42:43.388Z,12.14
2018-06-07T02:43:52.878Z,12.25
2018-06-07T02:45:02.889Z,12.18
2018-06-07T02:46:12.899Z,12.15
2018-06-07T02:47:22.915Z,12.18
2018-06-07T02:48:32.414Z,12.25
2018-06-07T02:49:42.423Z,12.17
2018-06-07T02:50:52.169Z,12.25
2018-06-07T02:52:02.177Z,12.32
2018-06-07T02:53:11.659Z,12.3
2018-06-07T02:54:21.138Z,12.39
2018-06-07T02:55:31.151Z,12.4
2018-06-07T02:56:41.158Z,12.36
2018-06-07T02:57:50.898Z,12.36
2018-06-07T02:59:00.900Z,12.35
2018-06-07T03:00:10.404Z,12.44
2018-06-07T03:04:27.919Z,12.36
2018-06-07T03:05:37.660Z,12.36
2018-06-07T03:06:47.141Z,12.36
2018-06-07T03:07:57.151Z,12.36
2018-06-07T03:09:06.627Z,12.35
2018-06-07T03:10:16.107Z,12.43
2018-06-07T03:11:26.116Z,12.4
2018-06-07T03:12:36.125Z,12.36
2018-06-07T03:13:46.139Z,12.37
2018-06-07T03:14:56.144Z,12.44
2018-06-07T03:16:05.887Z,12.33
2018-06-07T03:17:15.634Z,12.43
2018-06-07T03:18:25.371Z,12.39
2018-06-07T03:19:35.111Z,12.43
2018-06-07T03:20:44.585Z,12.51
2018-06-07T03:21:54.331Z,12.51
2018-06-07T03:23:04.073Z,12.61
2018-06-07T03:24:13.547Z,12.62
2018-06-07T03:25:23.018Z,12.62
2018-06-07T03:26:33.033Z,12.66
2018-06-07T03:27:42.510Z,12.65
2018-06-07T03:28:51.721Z,12.78
2018-06-07T03:30:01.729Z,12.83
2018-06-07T03:31:11.486Z,12.83
2018-06-07T03:32:21.494Z,12.91
2018-06-07T03:33:31.507Z,12.88
2018-06-07T03:34:40.978Z,12.86
2018-06-07T03:35:50.719Z,12.88
2018-06-07T03:37:00.729Z,12.88
2018-06-07T03:38:10.745Z,12.9
2018-06-07T03:39:20.753Z,12.95
2018-06-07T03:40:30.491Z,12.87
2018-06-07T03:41:40.496Z,12.91
2018-06-07T03:42:50.245Z,12.9
2018-06-07T03:43:59.982Z,12.9
2018-06-07T03:45:09.460Z,12.88
2018-06-07T03:46:19.463Z,12.91
2018-06-07T03:47:29.466Z,12.84
2018-06-07T03:48:39.482Z,12.95
2018-06-07T03:49:49.229Z,12.94
2018-06-07T03:50:59.241Z,12.88
2018-06-07T03:52:08.991Z,13.01
2018-06-07T03:53:18.469Z,12.93
2018-06-07T03:54:27.953Z,12.95
2018-06-07T03:55:37.959Z,12.99
2018-06-07T03:56:47.719Z,12.98
2018-06-07T03:57:57.459Z,13.08
2018-06-07T03:59:07.464Z,13.08
2018-06-07T04:00:17.478Z,13.13
2018-06-07T04:01:27.229Z,13.12
2018-06-07T04:02:36.974Z,13.2
2018-06-07T04:03:46.714Z,13.23
2018-06-07T04:04:56.460Z,13.24
2018-06-07T04:06:06.479Z,13.27
2018-06-07T04:07:15.998Z,13.3
2018-06-07T04:08:25.483Z,13.24
2018-06-07T04:09:34.969Z,13.26
2018-06-07T04:10:44.974Z,13.36
2018-06-07T04:11:54.983Z,13.42
2018-06-07T04:13:04.727Z,13.45
2018-06-07T04:14:14.203Z,13.39
2018-06-07T04:15:23.945Z,13.23
2018-06-07T04:16:33.420Z,13.31
2018-06-07T04:17:43.422Z,13.31
2018-06-07T04:18:52.898Z,13.28
2018-06-07T04:20:02.906Z,13.26
2018-06-07T04:21:12.384Z,13.23
2018-06-07T04:22:22.396Z,13.19
2018-06-07T04:23:32.413Z,13.12
2018-06-07T04:24:42.444Z,13.13
2018-06-07T04:25:52.185Z,13.12
2018-06-07T04:27:02.194Z,13.17
2018-06-07T04:28:11.935Z,13.11
2018-06-07T04:29:21.723Z,13.13
2018-06-07T04:30:31.733Z,13.08
2018-06-07T04:31:41.766Z,13.08
2018-06-07T04:32:51.250Z,13.06
2018-06-07T04:34:00.992Z,13.05
2018-06-07T04:35:10.732Z,13.01
2018-06-07T04:36:20.740Z,12.91
2018-06-07T04:37:30.241Z,12.99
2018-06-07T04:38:40.260Z,12.91
2018-06-07T04:39:50.265Z,12.9
2018-06-07T04:41:00.278Z,12.86
2018-06-07T04:42:10.031Z,12.88
2018-06-07T04:43:20.037Z,12.86
2018-06-07T04:44:30.047Z,12.84
2018-06-07T04:45:39.789Z,12.93
2018-06-07T04:46:49.824Z,12.99
2018-06-07T04:47:59.831Z,12.87
2018-06-07T04:49:09.572Z,12.93
2018-06-07T04:50:19.582Z,12.98
2018-06-07T04:51:29.595Z,13.02
2018-06-07T04:52:39.602Z,13.06
2018-06-07T04:53:49.346Z,13.08
2018-06-07T04:54:59.354Z,13.11
2018-06-07T04:56:09.098Z,13.17
2018-06-07T04:57:19.109Z,13.27
2018-06-07T04:58:28.857Z,13.26
2018-06-07T04:59:38.597Z,13.26
2018-06-07T05:00:48.343Z,13.39
2018-06-07T05:01:58.093Z,13.37
2018-06-07T05:03:07.839Z,13.54
2018-06-07T05:04:17.590Z,13.65
2018-06-07T05:05:27.600Z,13.7
2018-06-07T05:06:37.180Z,13.75
2018-06-07T05:07:47.482Z,13.8
2018-06-07T05:08:57.221Z,13.87
2018-06-07T05:10:06.707Z,13.78
2018-06-07T05:11:16.714Z,13.93
2018-06-07T05:12:26.615Z,13.91
2018-06-07T05:13:36.147Z,13.95
2018-06-07T05:14:46.165Z,14.04
2018-06-07T05:15:56.182Z,14.11
2018-06-07T05:17:05.929Z,14.12
2018-06-07T05:18:15.406Z,14.08
2018-06-07T05:19:25.409Z,14.11
2018-06-07T05:20:35.421Z,14.08
2018-06-07T05:21:45.439Z,14.11
2018-06-07T05:22:55.449Z,14.18
2018-06-07T05:24:05.456Z,14.13
2018-06-07T05:25:15.467Z,14.26
2018-06-07T05:26:25.217Z,14.3
2018-06-07T05:27:35.237Z,14.37
2018-06-07T05:28:45.258Z,14.31
2018-06-07T05:29:55.266Z,14.33
2018-06-07T05:31:05.298Z,14.37
2018-06-07T05:32:14.511Z,14.38
2018-06-07T05:33:24.264Z,14.3
2018-06-07T05:34:34.005Z,14.26
2018-06-07T05:35:44.019Z,14.4
2018-06-07T05:36:54.040Z,14.4
2018-06-07T05:38:04.060Z,14.36
2018-06-07T05:39:13.741Z,14.43
2018-06-07T05:40:23.751Z,14.48
2018-06-07T05:41:33.230Z,14.34
2018-06-07T05:42:43.239Z,14.59
2018-06-07T05:43:53.268Z,14.51
2018-06-07T05:45:03.285Z,14.66
2018-06-07T05:46:13.030Z,14.68
2018-06-07T05:47:23.044Z,14.63
2018-06-07T05:48:32.790Z,14.79
2018-06-07T05:49:42.808Z,14.81
2018-06-07T05:50:52.552Z,14.79
2018-06-07T05:52:02.789Z,14.92
2018-06-07T05:53:12.467Z,14.92
2018-06-07T05:54:22.478Z,14.97
2018-06-07T05:55:32.219Z,14.94
2018-06-07T05:56:41.434Z,14.97
2018-06-07T05:57:51.451Z,15.1
2018-06-07T05:59:01.477Z,15.08
2018-06-07T06:00:10.728Z,15.14
2018-06-07T06:01:20.534Z,15.26
2018-06-07T06:02:30.603Z,15.17
2018-06-07T06:03:40.386Z,15.22
2018-06-07T06:04:49.866Z,15.26
2018-06-07T06:05:59.614Z,15.26
2018-06-07T06:07:09.392Z,15.22
2018-06-07T06:08:19.490Z,15.17
2018-06-07T06:09:29.440Z,15.18
2018-06-07T06:10:39.077Z,15.29
2018-06-07T06:11:49.098Z,15.37
2018-06-07T06:12:59.101Z,15.3
2018-06-07T06:14:09.113Z,15.39
2018-06-07T06:15:18.854Z,15.43
2018-06-07T06:16:28.865Z,15.43
2018-06-07T06:17:38.610Z,15.37
2018-06-07T06:18:48.087Z,15.47
2018-06-07T06:19:57.564Z,15.47
2018-06-07T06:21:07.043Z,15.45
2018-06-07T06:22:16.523Z,15.6
2018-06-07T06:23:25.731Z,15.65
2018-06-07T06:24:35.743Z,15.55
2018-06-07T06:25:45.486Z,15.5
2018-06-07T06:26:55.580Z,15.63
2018-06-07T06:28:05.597Z,15.54
2018-06-07T06:29:15.342Z,15.57
2018-06-07T06:30:25.359Z,15.63
2018-06-07T06:31:35.368Z,15.65
2018-06-07T06:32:45.112Z,15.65
2018-06-07T06:33:54.858Z,15.67
2018-06-07T06:35:04.612Z,15.75
2018-06-07T06:36:14.633Z,15.72
2018-06-07T06:37:24.641Z,15.73
2018-06-07T06:38:34.115Z,15.8
2018-06-07T06:39:44.127Z,15.9
2018-06-07T06:40:53.871Z,15.96
2018-06-07T06:42:03.620Z,16.02
2018-06-07T06:43:13.370Z,16.08
2018-06-07T06:44:23.384Z,16.06
2018-06-07T06:45:32.862Z,16.09
2018-06-07T06:46:42.345Z,16.1
2018-06-07T06:47:52.089Z,16.09
2018-06-07T06:49:02.102Z,16.06
2018-06-07T06:50:11.892Z,16
2018-06-07T06:51:21.634Z,16.03
2018-06-07T06:52:31.387Z,16.08
2018-06-07T06:53:41.400Z,16.18
2018-06-07T06:54:50.610Z,16.24
2018-06-07T06:56:00.676Z,16.31
2018-06-07T06:57:10.890Z,16.41
2018-06-07T06:58:20.631Z,16.39
2018-06-07T06:59:30.375Z,16.43
2018-06-07T07:00:40.386Z,16.51
2018-06-07T07:01:50.392Z,16.43
2018-06-07T07:03:00.403Z,16.54
2018-06-07T07:04:10.432Z,16.65
2018-06-07T07:05:20.593Z,16.72
2018-06-07T07:06:30.337Z,16.73
2018-06-07T07:07:40.350Z,16.72
2018-06-07T07:08:50.406Z,16.76
2018-06-07T07:10:00.158Z,16.55
2018-06-07T07:11:10.171Z,16.58
2018-06-07T07:12:19.912Z,16.49
2018-06-07T07:13:29.656Z,16.5
2018-06-07T07:14:39.396Z,16.51
2018-06-07T07:15:49.408Z,16.57
2018-06-07T07:16:59.420Z,16.74
2018-06-07T07:18:09.178Z,16.66
2018-06-07T07:19:19.194Z,16.69
2018-06-07T07:20:29.217Z,16.73
2018-06-07T07:21:39.226Z,16.87
2018-06-07T07:22:48.970Z,16.82
2018-06-07T07:23:57.922Z,16.86
2018-06-07T07:25:07.135Z,16.92
2018-06-07T07:26:17.150Z,16.92
2018-06-07T07:27:27.164Z,16.97
2018-06-07T07:28:36.907Z,16.99
2018-06-07T07:29:46.648Z,17.04
2018-06-07T07:30:56.124Z,17.13
2018-06-07T07:32:05.337Z,17.13
2018-06-07T07:33:15.347Z,17.28
2018-06-07T07:34:25.433Z,17.2
2018-06-07T07:35:35.013Z,17.34
2018-06-07T07:36:44.300Z,17.47
2018-06-07T07:37:54.123Z,17.57
2018-06-07T07:39:04.040Z,17.59
2018-06-07T07:40:14.078Z,17.69
2018-06-07T07:41:24.122Z,17.69
2018-06-07T07:42:33.898Z,17.78
2018-06-07T07:43:43.652Z,17.86
2018-06-07T07:44:53.401Z,17.94
2018-06-07T07:46:03.190Z,17.98
2018-06-07T07:47:12.941Z,17.95
2018-06-07T07:48:22.417Z,17.9
2018-06-07T07:49:32.162Z,17.98
2018-06-07T07:50:41.976Z,18.09
2018-06-07T07:51:51.490Z,18.12
2018-06-07T07:53:01.244Z,18.13
2018-06-07T07:54:11.252Z,18.23
2018-06-07T07:55:20.992Z,18.19
2018-06-07T07:56:31.011Z,18.27
2018-06-07T07:57:41.025Z,18.33
2018-06-07T07:58:50.779Z,18.41
2018-06-07T08:00:00.801Z,18.31
2018-06-07T08:01:10.826Z,18.3
2018-06-07T08:02:20.573Z,18.33
2018-06-07T08:03:30.050Z,18.37
2018-06-07T08:04:40.070Z,18.31
2018-06-07T08:05:49.825Z,18.27
2018-06-07T08:06:59.849Z,18.33
2018-06-07T08:08:09.598Z,18.23
2018-06-07T08:09:19.351Z,18.33
2018-06-07T08:10:29.358Z,18.43
2018-06-07T08:11:39.371Z,18.48
2018-06-07T08:12:49.383Z,18.51
2018-06-07T08:13:59.132Z,18.46
2018-06-07T08:15:09.162Z,18.51
2018-06-07T08:16:18.716Z,18.49
2018-06-07T08:17:28.737Z,18.48
2018-06-07T08:18:38.747Z,18.43
2018-06-07T08:19:48.757Z,18.55
2018-06-07T08:20:58.765Z,18.6
2018-06-07T08:22:07.986Z,18.61
2018-06-07T08:23:18.000Z,18.73
2018-06-07T08:24:27.741Z,18.78
2018-06-07T08:25:37.488Z,18.88
2018-06-07T08:26:47.247Z,18.86
2018-06-07T08:27:56.994Z,19.01
2018-06-07T08:29:06.807Z,19.01
2018-06-07T08:30:16.556Z,19
2018-06-07T08:31:26.578Z,19.05
2018-06-07T08:32:36.058Z,19.11
2018-06-07T08:33:46.078Z,19.15
2018-06-07T08:34:56.102Z,19.24
2018-06-07T08:36:06.127Z,19.38
2018-06-07T08:37:15.875Z,19.42
2018-06-07T08:38:25.362Z,19.45
2018-06-07T08:39:35.526Z,19.44
2018-06-07T08:40:45.838Z,19.44
2018-06-07T08:41:55.859Z,19.44
2018-06-07T08:43:05.342Z,19.48
2018-06-07T08:44:15.101Z,19.57
2018-06-07T08:45:25.122Z,19.64
2018-06-07T08:46:35.130Z,19.72
2018-06-07T08:47:45.144Z,19.77
2018-06-07T08:48:55.216Z,20
2018-06-07T08:50:05.235Z,19.93
2018-06-07T08:51:15.023Z,20.11
2018-06-07T08:52:24.873Z,20.22
2018-06-07T08:53:34.628Z,20.32
2018-06-07T08:54:46.641Z,20.3
2018-06-07T08:55:56.395Z,20.37
2018-06-07T08:57:06.184Z,20.18
2018-06-07T08:58:16.191Z,20.19
2018-06-07T08:59:26.199Z,20.1
2018-06-07T09:00:36.300Z,20.1
2018-06-07T09:01:46.348Z,20.08
2018-06-07T09:02:56.367Z,19.99
2018-06-07T09:04:06.113Z,20.08
2018-06-07T09:05:15.864Z,20.17
2018-06-07T09:06:25.614Z,20.21
2018-06-07T09:07:35.366Z,20.19
2018-06-07T09:08:45.379Z,20.22
2018-06-07T09:09:55.387Z,20.37
2018-06-07T09:11:05.406Z,20.27
2018-06-07T09:12:15.414Z,20.36
2018-06-07T09:13:25.166Z,20.32
2018-06-07T09:14:35.186Z,20.44
2018-06-07T09:15:44.928Z,20.4
2018-06-07T09:16:54.677Z,20.58
2018-06-07T09:18:04.170Z,20.7
2018-06-07T09:19:14.186Z,20.63
2018-06-07T09:20:23.941Z,20.7
2018-06-07T09:21:33.724Z,20.77
2018-06-07T09:22:43.473Z,20.88
2018-06-07T09:23:53.218Z,20.93
2018-06-07T09:25:02.699Z,20.89
2018-06-07T09:26:12.294Z,20.9
2018-06-07T09:27:21.773Z,21.08
2018-06-07T09:28:31.529Z,21.08
2018-06-07T09:29:41.544Z,21.05
2018-06-07T09:30:51.960Z,20.96
2018-06-07T09:32:01.962Z,21.01
2018-06-07T09:33:11.980Z,21.01
2018-06-07T09:34:21.790Z,20.83
2018-06-07T09:35:31.606Z,20.82
2018-06-07T09:36:41.624Z,20.95
2018-06-07T09:37:51.375Z,20.88
2018-06-07T09:39:00.854Z,21.04
2018-06-07T09:40:10.603Z,21.1
2018-06-07T09:41:20.620Z,21.03
2018-06-07T09:42:30.367Z,21.14
2018-06-07T09:43:40.112Z,21.15
2018-06-07T09:44:49.865Z,21.26
2018-06-07T09:45:59.885Z,21.43
2018-06-07T09:47:11.659Z,21.33
2018-06-07T09:48:21.676Z,21.28
2018-06-07T09:49:31.422Z,21.29
2018-06-07T09:50:41.167Z,21.33
2018-06-07T09:51:51.191Z,21.51
2018-06-07T09:53:00.805Z,21.6
2018-06-07T09:54:10.642Z,21.7
2018-06-07T09:55:20.662Z,21.63
2018-06-07T09:56:30.706Z,21.58
2018-06-07T09:57:40.723Z,21.65
2018-06-07T09:58:50.736Z,21.63
2018-06-07T10:00:00.217Z,21.75
2018-06-07T10:01:09.971Z,21.81
2018-06-07T10:02:20.001Z,21.91
2018-06-07T10:03:30.021Z,21.99
2018-06-07T10:04:40.092Z,21.89
2018-06-07T10:05:49.577Z,22.12
2018-06-07T10:06:59.062Z,22.22
2018-06-07T10:08:08.804Z,22.22
2018-06-07T10:09:18.821Z,22.26
2018-06-07T10:10:28.886Z,22.36
2018-06-07T10:11:38.900Z,22.46
2018-06-07T10:12:48.648Z,22.59
2018-06-07T10:13:58.674Z,22.67
2018-06-07T10:15:08.693Z,22.7
2018-06-07T10:16:18.546Z,22.65
2018-06-07T10:17:28.676Z,22.65
2018-06-07T10:18:38.470Z,22.67
2018-06-07T10:19:48.228Z,22.81
2018-06-07T10:20:57.977Z,22.92
2018-06-07T10:22:07.558Z,22.98
2018-06-07T10:23:17.040Z,22.88
2018-06-07T10:24:26.789Z,22.93
2018-06-07T10:25:36.267Z,22.78
2018-06-07T10:26:46.017Z,22.81
2018-06-07T10:27:55.828Z,22.73
2018-06-07T10:29:05.839Z,22.93
2018-06-07T10:30:15.989Z,22.92
2018-06-07T10:31:26.002Z,22.95
2018-06-07T10:32:35.485Z,23.07
2018-06-07T10:33:45.505Z,23.13
2018-06-07T10:34:55.262Z,23.16
2018-06-07T10:36:05.282Z,23.33
2018-06-07T10:37:14.762Z,23.32
2018-06-07T10:38:24.782Z,23.33
2018-06-07T10:39:36.799Z,23.42
2018-06-07T10:40:46.735Z,23.39
2018-06-07T10:41:56.751Z,23.55
2018-06-07T10:43:06.236Z,23.55
2018-06-07T10:44:15.462Z,23.4
2018-06-07T10:45:24.680Z,23.48
2018-06-07T10:46:34.438Z,23.39
2018-06-07T10:47:44.460Z,23.37
2018-06-07T10:48:54.473Z,23.55
2018-06-07T10:50:04.489Z,23.62
2018-06-07T10:51:14.631Z,23.71
2018-06-07T10:52:24.146Z,23.81
2018-06-07T10:53:33.897Z,23.94
2018-06-07T10:54:43.378Z,24.04
2018-06-07T10:55:53.400Z,24.01
2018-06-07T10:57:03.472Z,24.09
2018-06-07T10:58:13.221Z,24.19
2018-06-07T10:59:23.266Z,24.34
2018-06-07T11:00:33.016Z,24.38
2018-06-07T11:01:43.030Z,24.47
2018-06-07T11:02:52.880Z,24.56
2018-06-07T11:04:02.366Z,24.51
2018-06-07T11:05:11.581Z,24.5
2018-06-07T11:06:21.331Z,24.59
2018-06-07T11:07:31.353Z,24.59
2018-06-07T11:08:41.370Z,24.82
2018-06-07T11:09:51.449Z,24.82
2018-06-07T11:11:01.211Z,24.94
2018-06-07T11:12:11.237Z,25.12
2018-06-07T11:13:21.286Z,25.16
2018-06-07T11:14:31.398Z,25.29
2018-06-07T11:15:41.494Z,25.31
2018-06-07T11:16:51.261Z,25.4
2018-06-07T11:18:01.299Z,25.44
2018-06-07T11:19:11.072Z,25.52
2018-06-07T11:20:20.921Z,25.56
2018-06-07T11:21:30.932Z,25.62
2018-06-07T11:22:40.413Z,25.8
2018-06-07T11:23:51.017Z,25.93
2018-06-07T11:25:01.240Z,26.13
2018-06-07T11:26:10.717Z,26.31
2018-06-07T11:27:20.474Z,26.56
2018-06-07T11:28:30.226Z,26.79
2018-06-07T11:29:39.978Z,27.16
2018-06-07T11:30:49.722Z,27.26
2018-06-07T11:31:59.468Z,27.23
2018-06-07T11:33:09.225Z,27.44
2018-06-07T11:34:18.983Z,27.95
2018-06-07T11:35:28.995Z,28.56
2018-06-07T11:36:38.767Z,29.09
2018-06-07T11:37:48.784Z,29.62
2018-06-07T11:38:58.528Z,30.11
2018-06-07T11:40:07.486Z,30.56
2018-06-07T11:41:17.241Z,30.86
2018-06-07T11:42:27.274Z,31.22
2018-06-07T11:43:37.022Z,31.63
2018-06-07T11:44:46.773Z,31.95
2018-06-07T11:45:56.865Z,32.45
2018-06-07T11:47:06.919Z,32.81
2018-06-07T11:48:16.937Z,33.12
2018-06-07T11:49:26.957Z,33.32
2018-06-07T11:50:36.453Z,33.76
2018-06-07T11:51:46.235Z,33.84
2018-06-07T11:52:55.458Z,33.92
2018-06-07T11:54:05.516Z,34.19
2018-06-07T11:55:15.544Z,34.55
2018-06-07T11:56:25.300Z,34.58
2018-06-07T11:57:35.334Z,34.85
2018-06-07T11:58:45.360Z,35.13
2018-06-07T11:59:54.848Z,35.13
2018-06-07T12:01:04.881Z,35.16
2018-06-07T12:02:14.639Z,34.97
2018-06-07T12:03:24.678Z,35.13
2018-06-07T12:04:34.702Z,35.34
2018-06-07T12:05:43.928Z,35.6
2018-06-07T12:06:53.685Z,35.82
2018-06-07T12:08:03.716Z,35.87
2018-06-07T12:09:13.745Z,36.06
2018-06-07T12:10:23.517Z,36.28
2018-06-07T12:11:33.546Z,36.45
2018-06-07T12:12:43.390Z,36.62
2018-06-07T12:13:53.145Z,36.72
2018-06-07T12:15:02.640Z,36.75
2018-06-07T12:16:11.603Z,36.39
2018-06-07T12:17:20.841Z,36.48
2018-06-07T12:18:30.870Z,36.89
2018-06-07T12:19:40.895Z,36.73
2018-06-07T12:20:50.921Z,37.09
2018-06-07T12:22:01.003Z,37.19
2018-06-07T12:23:10.766Z,37.23
2018-06-07T12:24:20.526Z,37.21
2018-06-07T12:25:30.297Z,37.21
2018-06-07T12:26:40.061Z,37.43
2018-06-07T12:27:50.093Z,37.64
2018-06-07T12:28:59.857Z,37.31
2018-06-07T12:30:09.631Z,37.63
2018-06-07T12:31:19.666Z,37.28
2018-06-07T12:32:29.701Z,37.45
2018-06-07T12:33:39.732Z,37.47
2018-06-07T12:34:49.771Z,37.63
2018-06-07T12:35:59.803Z,37.76
2018-06-07T12:37:09.315Z,37.66
2018-06-07T12:38:19.374Z,37.79
2018-06-07T12:39:29.141Z,37.97
2018-06-07T12:40:39.242Z,38.19
2018-06-07T12:41:49.283Z,37.9
2018-06-07T12:42:59.330Z,37.8
2018-06-07T12:44:08.842Z,38.16
2018-06-07T12:45:18.341Z,38.32
2018-06-07T12:46:28.102Z,38.5
2018-06-07T12:47:37.875Z,38.65
2018-06-07T12:48:47.913Z,38.7
2018-06-07T12:49:57.418Z,38.77
2018-06-07T12:51:07.495Z,38.79
2018-06-07T12:52:17.286Z,39.23
2018-06-07T12:53:27.317Z,38.95
2018-06-07T12:54:37.348Z,39.01
2018-06-07T12:55:47.114Z,39.03
2018-06-07T12:56:56.903Z,39.25
2018-06-07T12:58:06.744Z,39.41
2018-06-07T12:59:16.507Z,39.48
2018-06-07T13:00:26.026Z,39.59
2018-06-07T13:01:35.275Z,39.49
2018-06-07T13:02:45.042Z,39.68
2018-06-07T13:03:54.273Z,39.95
2018-06-07T13:05:04.048Z,39.83
2018-06-07T13:06:13.555Z,39.83
2018-06-07T13:07:23.322Z,39.89
2018-06-07T13:08:33.095Z,40.05
2018-06-07T13:09:42.859Z,40.23
2018-06-07T13:10:52.904Z,40.4
2018-06-07T13:12:02.936Z,40.58
2018-06-07T13:13:12.443Z,40.66
2018-06-07T13:14:22.215Z,40.66
2018-06-07T13:15:31.992Z,40.73
2018-06-07T13:16:41.763Z,40.78
2018-06-07T13:17:51.792Z,40.61
2018-06-07T13:19:01.562Z,40.46
2018-06-07T13:20:11.345Z,40.43
2018-06-07T13:21:21.112Z,40
2018-06-07T13:22:30.604Z,40.39
2018-06-07T13:23:40.375Z,40.62
2018-06-07T13:24:50.411Z,40.74
2018-06-07T13:26:00.183Z,40.86
2018-06-07T13:27:09.690Z,40.78
2018-06-07T13:28:18.929Z,40.83
2018-06-07T13:29:28.713Z,40.96
2018-06-07T13:30:38.487Z,41.14
2018-06-07T13:31:47.988Z,41.11
2018-06-07T13:32:57.752Z,41.14
2018-06-07T13:34:07.393Z,41.15
2018-06-07T13:35:17.381Z,41.26
2018-06-07T13:36:27.413Z,41.44
2018-06-07T13:37:37.444Z,41.74
2018-06-07T13:38:47.477Z,41.86
2018-06-07T13:39:57.513Z,41.9
2018-06-07T13:41:07.011Z,41.83
2018-06-07T13:42:16.783Z,41.63
2018-06-07T13:43:26.827Z,41.84
2018-06-07T13:44:36.327Z,41.52
2018-06-07T13:45:46.095Z,41.45
2018-06-07T13:46:55.869Z,41.26
2018-06-07T13:48:05.369Z,41.14
2018-06-07T13:49:15.411Z,41.18
2018-06-07T13:50:25.439Z,41.41
2018-06-07T13:51:35.319Z,41.45
2018-06-07T13:52:45.353Z,41.46
2018-06-07T13:53:54.857Z,41.36
2018-06-07T13:55:04.900Z,41.34
2018-06-07T13:56:14.932Z,41.15
2018-06-07T13:57:24.966Z,40.88
2018-06-07T13:58:35.006Z,40.86
2018-06-07T13:59:44.770Z,41.11
2018-06-07T14:00:54.268Z,40.89
2018-06-07T14:02:04.034Z,40.9
2018-06-07T14:03:16.069Z,41.1
2018-06-07T14:04:25.839Z,41.07
2018-06-07T14:05:35.331Z,41.11
2018-06-07T14:06:45.104Z,41.44
2018-06-07T14:07:54.606Z,41.68
2018-06-07T14:09:04.366Z,41.74
2018-06-07T14:10:14.424Z,42
2018-06-07T14:11:24.198Z,41.86
2018-06-07T14:12:33.961Z,42.22
2018-06-07T14:13:43.995Z,42.49
2018-06-07T14:14:54.032Z,42.46
2018-06-07T14:16:04.068Z,42.52
2018-06-07T14:17:14.132Z,42.47
2018-06-07T14:18:24.333Z,42.52
2018-06-07T14:19:34.103Z,42.28
2018-06-07T14:20:44.135Z,42.61
2018-06-07T14:21:54.167Z,42.65
2018-06-07T14:23:04.204Z,42.71
2018-06-07T14:24:14.237Z,42.87
2018-06-07T14:25:24.002Z,42.75
2018-06-07T14:26:33.771Z,42.56
2018-06-07T14:27:43.007Z,42.33
2018-06-07T14:28:52.507Z,42.21
2018-06-07T14:30:02.004Z,42.33
2018-06-07T14:31:11.780Z,42.14
2018-06-07T14:32:21.809Z,42.27
2018-06-07T14:33:31.583Z,41.96
2018-06-07T14:34:41.628Z,41.61
2018-06-07T14:35:51.658Z,42.02
2018-06-07T14:37:01.435Z,42.17
2018-06-07T14:38:11.468Z,42.39
2018-06-07T14:39:21.504Z,42.51
2018-06-07T14:40:31.270Z,42.36
2018-06-07T14:41:40.777Z,42.32
2018-06-07T14:42:50.813Z,42.39
2018-06-07T14:44:00.851Z,42.34
2018-06-07T14:45:10.355Z,42.47
2018-06-07T14:46:20.392Z,42.21
2018-06-07T14:47:30.157Z,42.39
2018-06-07T14:48:40.185Z,42.39
2018-06-07T14:49:50.215Z,42.27
2018-06-07T14:50:59.984Z,42.33
2018-06-07T14:52:09.762Z,42.03
2018-06-07T14:53:19.527Z,41.9
2018-06-07T14:54:29.081Z,42.22
2018-06-07T14:55:38.898Z,42.02
2018-06-07T14:56:48.929Z,42.32
2018-06-07T14:57:58.971Z,41.87
2018-06-07T14:59:08.470Z,41.71
2018-06-07T15:00:18.233Z,42.15
2018-06-07T15:01:27.996Z,41.87
2018-06-07T15:02:38.048Z,41.87
2018-06-07T15:03:48.087Z,41.87
2018-06-07T15:04:57.585Z,42.15
2018-06-07T15:06:07.633Z,42.29